createdAt,value
2022-10-26T00:02:24.820Z,11.13
2022-10-26T00:04:54.478Z,10.95
2022-10-26T00:07:21.762Z,10.32
2022-10-26T00:09:51.365Z,11.35
2022-10-26T00:12:18.465Z,10.95
2022-10-26T00:14:51.205Z,11.25
2022-10-26T00:17:20.424Z,10.57
2022-10-26T00:19:49.970Z,10.80
2022-10-26T00:22:17.224Z,11.30
2022-10-26T00:24:46.931Z,11.93
2022-10-26T00:27:14.064Z,12.05
2022-10-26T00:29:44.164Z,12.15
2022-10-26T00:32:15.892Z,12.45
2022-10-26T00:34:45.467Z,12.15
2022-10-26T00:37:12.490Z,12.98
2022-10-26T00:39:44.391Z,12.38
2022-10-26T00:42:24.542Z,11.57
2022-10-26T00:45:01.066Z,12.20
2022-10-26T00:47:39.042Z,12.20
2022-10-26T00:50:15.266Z,12.50
2022-10-26T00:52:47.997Z,12.88
2022-10-26T00:55:21.337Z,14.25
2022-10-26T00:57:53.479Z,13.52
2022-10-26T01:00:22.831Z,13.60
2022-10-26T01:02:54.987Z,14.40
2022-10-26T01:05:22.389Z,14.23
2022-10-26T01:07:54.687Z,14.15
2022-10-26T01:10:26.266Z,15.20
2022-10-26T01:12:58.265Z,14.70
2022-10-26T01:15:38.950Z,14.50
2022-10-26T01:18:40.823Z,15.80
2022-10-26T01:21:26.836Z,15.25
2022-10-26T01:24:59.720Z,15.50
2022-10-26T01:27:42.521Z,16.73
2022-10-26T01:30:18.789Z,13.70
2022-10-26T01:33:12.711Z,15.00
2022-10-26T01:35:51.438Z,14.73
2022-10-26T01:38:41.038Z,16.35
2022-10-26T01:41:25.586Z,15.00
2022-10-26T01:44:02.703Z,16.63
2022-10-26T01:49:12.190Z,17.63
2022-10-26T01:51:42.486Z,17.27
2022-10-26T01:54:14.232Z,18.08
2022-10-26T01:56:44.720Z,17.25
2022-10-26T01:59:22.362Z,18.70
2022-10-26T02:02:26.870Z,17.27
2022-10-26T02:05:21.326Z,18.08
2022-10-26T02:08:16.247Z,16.75
2022-10-26T02:10:52.602Z,16.35
2022-10-26T02:13:33.454Z,17.73
2022-10-26T02:16:19.572Z,17.30
2022-10-26T02:19:24.330Z,16.63
2022-10-26T02:22:09.739Z,16.95
2022-10-26T02:24:37.961Z,17.33
2022-10-26T02:27:16.087Z,17.73
2022-10-26T02:29:50.720Z,17.83
2022-10-26T02:32:19.932Z,17.30
2022-10-26T02:34:51.672Z,17.58
2022-10-26T02:37:23.758Z,17.88
2022-10-26T02:39:52.802Z,17.42
2022-10-26T02:42:23.011Z,20.80
2022-10-26T02:44:59.037Z,20.27
2022-10-26T02:47:29.319Z,21.30
2022-10-26T02:49:58.643Z,22.00
2022-10-26T02:52:40.890Z,20.42
2022-10-26T02:55:32.008Z,23.33
2022-10-26T02:58:04.505Z,22.80
2022-10-26T03:00:32.069Z,23.02
2022-10-26T03:03:06.660Z,24.65
2022-10-26T03:05:38.778Z,25.88
2022-10-26T03:08:08.671Z,26.83
2022-10-26T03:10:42.694Z,26.67
2022-10-26T03:13:14.870Z,26.33
2022-10-26T03:15:46.138Z,28.33
2022-10-26T03:18:21.246Z,27.88
2022-10-26T03:20:50.336Z,27.67
2022-10-26T03:23:22.056Z,27.92
2022-10-26T03:28:23.901Z,28.20
2022-10-26T03:30:53.072Z,32.13
2022-10-26T03:33:23.320Z,29.52
2022-10-26T03:35:57.176Z,28.80
2022-10-26T03:38:29.005Z,31.60
2022-10-26T03:41:00.882Z,31.90
2022-10-26T03:43:31.251Z,31.38
2022-10-26T03:46:02.745Z,30.25
2022-10-26T03:48:35.003Z,29.38
2022-10-26T03:51:06.589Z,30.15
2022-10-26T03:53:38.746Z,29.15
2022-10-26T03:56:06.296Z,28.98
2022-10-26T03:58:33.611Z,30.05
2022-10-26T04:01:05.449Z,29.90
2022-10-26T04:03:32.718Z,27.45
2022-10-26T04:06:05.253Z,26.98
2022-10-26T04:08:34.853Z,26.85
2022-10-26T04:11:04.933Z,26.58
2022-10-26T04:13:32.477Z,26.52
2022-10-26T04:16:01.869Z,25.92
2022-10-26T04:18:29.133Z,26.92
2022-10-26T04:20:58.392Z,26.83
2022-10-26T04:23:28.108Z,27.45
2022-10-26T04:26:01.820Z,28.08
2022-10-26T04:28:29.401Z,28.02
2022-10-26T04:30:58.564Z,29.90
2022-10-26T04:33:25.954Z,29.92
2022-10-26T04:36:00.674Z,28.85
2022-10-26T04:38:27.951Z,28.77
2022-10-26T04:40:59.989Z,28.42
2022-10-26T04:43:27.238Z,27.60
2022-10-26T04:45:58.112Z,29.00
2022-10-26T04:51:03.694Z,27.73
2022-10-26T04:53:34.394Z,48.20
2022-10-26T04:56:01.922Z,31.10
2022-10-26T04:58:32.205Z,25.73
2022-10-26T05:01:04.668Z,28.75
2022-10-26T05:03:34.211Z,27.85
2022-10-26T05:06:01.452Z,26.83
2022-10-26T05:08:29.987Z,29.60
2022-10-26T05:10:57.140Z,30.02
2022-10-26T05:16:01.147Z,29.70
2022-10-26T05:18:28.770Z,27.60
2022-10-26T05:20:57.894Z,26.80
2022-10-26T05:23:27.493Z,25.08
2022-10-26T05:25:56.206Z,26.92
2022-10-26T05:28:26.359Z,26.50
2022-10-26T05:30:58.405Z,25.30
2022-10-26T05:35:55.537Z,27.75
2022-10-26T05:40:57.616Z,25.10
2022-10-26T05:43:27.597Z,27.98
2022-10-26T05:45:54.765Z,24.17
2022-10-26T05:48:22.198Z,24.10
2022-10-26T05:50:49.385Z,25.95
2022-10-26T05:53:23.797Z,28.73
2022-10-26T05:55:51.202Z,30.08
2022-10-26T05:58:21.134Z,29.15
2022-10-26T06:01:32.336Z,27.42
2022-10-26T06:04:24.031Z,26.70
2022-10-26T06:06:58.641Z,27.23
2022-10-26T06:09:31.403Z,27.38
2022-10-26T06:12:01.819Z,28.30
2022-10-26T06:14:29.491Z,27.25
2022-10-26T06:17:10.669Z,25.63
2022-10-26T06:19:52.513Z,25.00
2022-10-26T06:22:48.739Z,22.85
2022-10-26T06:25:58.205Z,21.00
2022-10-26T06:28:59.336Z,22.38
2022-10-26T06:31:32.324Z,24.30
2022-10-26T06:34:05.795Z,22.20
2022-10-26T06:36:33.901Z,23.75
2022-10-26T06:39:09.261Z,24.10
2022-10-26T06:41:39.907Z,20.10
2022-10-26T06:44:21.061Z,22.27
2022-10-26T06:47:23.453Z,22.98
2022-10-26T06:50:01.948Z,24.10
2022-10-26T06:52:36.129Z,22.83
2022-10-26T06:55:06.570Z,24.60
2022-10-26T06:57:38.289Z,25.10
2022-10-26T07:00:09.180Z,24.57
2022-10-26T07:02:38.657Z,26.92
2022-10-26T07:05:13.066Z,25.02
2022-10-26T07:07:48.072Z,24.92
2022-10-26T07:10:15.934Z,24.67
2022-10-26T07:12:43.208Z,23.92
2022-10-26T07:15:12.615Z,25.80
2022-10-26T07:17:46.671Z,28.17
2022-10-26T07:20:21.095Z,26.17
2022-10-26T07:22:57.361Z,25.77
2022-10-26T07:28:51.233Z,29.90
2022-10-26T07:31:24.191Z,31.63
2022-10-26T07:33:54.674Z,32.90
2022-10-26T07:36:22.215Z,30.95
2022-10-26T07:38:53.125Z,29.90
2022-10-26T07:41:25.264Z,29.33
2022-10-26T07:44:02.069Z,30.38
2022-10-26T07:46:31.908Z,32.70
2022-10-26T07:48:59.486Z,31.50
2022-10-26T07:51:31.551Z,32.35
2022-10-26T07:53:58.598Z,34.00
2022-10-26T07:56:26.841Z,35.65
2022-10-26T07:58:58.522Z,34.15
2022-10-26T08:01:26.166Z,31.60
2022-10-26T08:03:58.457Z,29.17
2022-10-26T08:06:26.014Z,29.17
2022-10-26T08:08:53.088Z,28.88
2022-10-26T08:11:20.357Z,26.67
2022-10-26T08:13:53.289Z,27.50
2022-10-26T08:16:23.186Z,25.92
2022-10-26T08:18:53.423Z,24.17
2022-10-26T08:21:36.303Z,21.40
2022-10-26T08:24:07.487Z,23.27
2022-10-26T08:26:39.289Z,21.92
2022-10-26T08:29:12.005Z,25.98
2022-10-26T08:31:39.869Z,22.25
2022-10-26T08:34:09.963Z,23.30
2022-10-26T08:36:37.225Z,24.27
2022-10-26T08:39:06.774Z,22.80
2022-10-26T08:44:39.426Z,23.85
2022-10-26T08:47:46.979Z,24.65
2022-10-26T08:50:31.603Z,26.15
2022-10-26T08:53:20.635Z,25.50
2022-10-26T08:55:56.434Z,26.30
2022-10-26T08:58:36.788Z,26.33
2022-10-26T09:01:08.188Z,29.05
2022-10-26T09:03:38.405Z,30.08
2022-10-26T09:06:21.328Z,29.27
2022-10-26T09:08:51.214Z,30.65
2022-10-26T09:11:41.924Z,24.10
2022-10-26T09:14:46.289Z,23.35
2022-10-26T09:17:23.927Z,24.23
2022-10-26T09:20:31.214Z,25.85
2022-10-26T09:23:10.263Z,28.00
2022-10-26T09:25:41.845Z,26.58
2022-10-26T09:28:19.146Z,25.35
2022-10-26T09:30:49.472Z,25.73
2022-10-26T09:33:24.278Z,27.33
2022-10-26T09:35:59.159Z,29.13
2022-10-26T09:38:35.162Z,29.15
2022-10-26T09:41:13.495Z,30.45
2022-10-26T09:43:50.376Z,30.05
2022-10-26T09:46:23.074Z,26.88
2022-10-26T09:51:27.277Z,28.90
2022-10-26T09:53:58.959Z,29.05
2022-10-26T09:56:27.730Z,30.23
2022-10-26T09:59:02.336Z,33.35
2022-10-26T10:01:41.409Z,31.52
2022-10-26T10:04:22.493Z,28.85
2022-10-26T10:07:14.198Z,27.27
2022-10-26T10:09:43.750Z,28.40
2022-10-26T10:12:20.827Z,24.40
2022-10-26T10:15:01.971Z,23.38
2022-10-26T10:17:33.642Z,23.60
2022-10-26T10:20:13.778Z,25.27
2022-10-26T10:23:03.570Z,24.58
2022-10-26T10:25:36.726Z,27.95
2022-10-26T10:28:27.747Z,25.95
2022-10-26T10:31:05.362Z,25.63
2022-10-26T10:33:40.817Z,21.90
2022-10-26T10:36:18.364Z,20.90
2022-10-26T10:38:50.026Z,21.75
2022-10-26T10:41:20.315Z,21.42
2022-10-26T10:43:59.099Z,23.25
2022-10-26T10:46:27.506Z,27.88
2022-10-26T10:49:04.237Z,23.38
2022-10-26T10:51:40.886Z,22.05
2022-10-26T10:54:45.447Z,21.10
2022-10-26T10:57:34.327Z,19.92
2022-10-26T11:00:09.630Z,20.08
2022-10-26T11:02:55.118Z,18.88
2022-10-26T11:05:27.684Z,18.80
2022-10-26T11:08:12.168Z,18.58
2022-10-26T11:11:09.640Z,17.33
2022-10-26T11:13:51.008Z,18.45
2022-10-26T11:16:26.994Z,17.33
2022-10-26T11:19:00.515Z,17.75
2022-10-26T11:21:34.097Z,17.83
2022-10-26T11:24:13.278Z,17.35
2022-10-26T11:26:58.889Z,18.58
2022-10-26T11:29:47.570Z,15.88
2022-10-26T11:32:27.540Z,16.17
2022-10-26T11:35:05.035Z,16.95
2022-10-26T11:37:56.145Z,17.40
2022-10-26T11:40:26.935Z,17.08
2022-10-26T11:43:09.070Z,15.27
2022-10-26T11:45:43.139Z,17.45
2022-10-26T11:48:28.636Z,16.42
2022-10-26T11:51:01.402Z,17.60
2022-10-26T11:53:36.003Z,15.18
2022-10-26T11:56:05.166Z,14.95
2022-10-26T11:58:40.403Z,13.70
2022-10-26T12:01:14.869Z,14.00
2022-10-26T12:03:49.649Z,12.38
2022-10-26T12:06:23.532Z,12.98
2022-10-26T12:09:01.791Z,15.63
2022-10-26T12:11:49.098Z,13.93
2022-10-26T12:14:41.741Z,12.40
2022-10-26T12:17:39.769Z,10.50
2022-10-26T12:20:25.077Z,13.35
2022-10-26T12:22:57.289Z,12.70
2022-10-26T12:25:24.682Z,11.60
2022-10-26T12:27:55.058Z,10.93
2022-10-26T12:30:34.692Z,10.02
2022-10-26T12:33:05.295Z,10.05
2022-10-26T12:35:44.407Z,8.93
2022-10-26T12:38:29.047Z,8.68
2022-10-26T12:41:08.650Z,8.57
2022-10-26T12:46:19.074Z,8.68
2022-10-26T12:48:53.218Z,8.50
2022-10-26T12:51:28.876Z,7.50
2022-10-26T12:54:33.329Z,8.07
2022-10-26T12:57:15.379Z,8.07
2022-10-26T13:00:00.449Z,6.87
2022-10-26T13:02:56.792Z,6.63
2022-10-26T13:05:45.195Z,6.82
2022-10-26T13:08:15.021Z,5.05
2022-10-26T13:11:06.669Z,6.10
2022-10-26T13:13:39.851Z,4.93
2022-10-26T13:16:11.916Z,5.60
2022-10-26T13:18:49.304Z,5.40
2022-10-26T13:21:17.981Z,6.35
2022-10-26T13:23:57.564Z,7.38
2022-10-26T13:26:28.797Z,7.20
2022-10-26T13:29:01.766Z,7.20
2022-10-26T13:31:41.552Z,5.65
2022-10-26T13:34:20.954Z,4.72
2022-10-26T13:37:05.608Z,5.03
2022-10-26T13:39:42.449Z,3.90
2022-10-26T13:42:18.216Z,4.75
2022-10-26T13:44:53.612Z,4.25
2022-10-26T13:47:42.155Z,5.15
2022-10-26T13:50:18.290Z,4.82
2022-10-26T13:52:53.386Z,4.55
2022-10-26T13:55:33.775Z,5.07
2022-10-26T13:58:23.837Z,3.80
2022-10-26T14:01:21.524Z,4.18
2022-10-26T14:03:53.638Z,4.15
2022-10-26T14:06:37.413Z,3.92
2022-10-26T14:09:12.275Z,3.80
2022-10-26T14:12:04.483Z,3.20
2022-10-26T14:14:37.183Z,3.55
2022-10-26T14:17:07.600Z,3.73
2022-10-26T14:19:40.079Z,3.72
2022-10-26T14:22:23.921Z,3.70
2022-10-26T14:24:58.146Z,4.60
2022-10-26T14:27:39.095Z,4.00
2022-10-26T14:30:33.808Z,3.88
2022-10-26T14:33:16.837Z,3.42
2022-10-26T14:35:46.423Z,4.85
2022-10-26T14:38:27.713Z,4.28
2022-10-26T14:40:58.452Z,6.15
2022-10-26T14:43:26.845Z,12.32
2022-10-26T14:46:00.873Z,9.82
2022-10-26T14:48:36.218Z,11.50
2022-10-26T14:51:16.631Z,6.50
2022-10-26T14:53:52.366Z,6.78
2022-10-26T14:56:22.390Z,6.20
2022-10-26T14:58:50.505Z,6.65
2022-10-26T15:01:23.984Z,5.88
2022-10-26T15:04:05.831Z,5.13
2022-10-26T15:06:44.515Z,6.65
2022-10-26T15:09:53.157Z,6.82
2022-10-26T15:12:26.191Z,6.68
2022-10-26T15:14:58.994Z,6.70
2022-10-26T15:17:36.070Z,6.00
2022-10-26T15:20:12.751Z,6.70
2022-10-26T15:22:42.771Z,6.30
2022-10-26T15:25:20.654Z,6.72
2022-10-26T15:27:51.951Z,7.65
2022-10-26T15:30:27.855Z,7.55
2022-10-26T15:32:56.114Z,6.78
2022-10-26T15:35:27.130Z,8.20
2022-10-26T15:38:01.062Z,9.38
2022-10-26T15:40:37.035Z,8.88
2022-10-26T15:43:08.870Z,11.60
2022-10-26T15:45:47.900Z,10.10
2022-10-26T15:48:25.556Z,10.68
2022-10-26T15:50:55.822Z,11.45
2022-10-26T15:53:28.028Z,11.45
2022-10-26T15:55:58.034Z,10.63
2022-10-26T16:01:01.669Z,8.93
2022-10-26T16:03:32.514Z,9.95
2022-10-26T16:06:05.386Z,12.55
2022-10-26T16:08:37.428Z,9.90
2022-10-26T16:11:07.366Z,8.18
2022-10-26T16:13:36.674Z,8.88
2022-10-26T16:16:19.503Z,11.52
2022-10-26T16:18:58.013Z,9.75
2022-10-26T16:21:36.834Z,10.52
2022-10-26T16:24:04.087Z,10.45
2022-10-26T16:26:34.071Z,11.13
2022-10-26T16:29:01.291Z,11.10
2022-10-26T16:31:31.072Z,13.70
2022-10-26T16:34:01.622Z,14.45
2022-10-26T16:36:34.597Z,16.88
2022-10-26T16:39:04.231Z,17.67
2022-10-26T16:41:32.141Z,15.77
2022-10-26T16:44:03.858Z,19.42
2022-10-26T16:46:34.422Z,15.00
2022-10-26T16:49:03.982Z,14.93
2022-10-26T16:51:31.332Z,15.68
2022-10-26T16:54:00.602Z,14.38
2022-10-26T16:56:30.468Z,15.93
2022-10-26T16:58:58.384Z,16.00
2022-10-26T17:01:29.962Z,17.20
2022-10-26T17:03:57.071Z,16.95
2022-10-26T17:06:26.746Z,19.40
2022-10-26T17:08:54.799Z,20.88
2022-10-26T17:11:22.609Z,18.33
2022-10-26T17:13:57.786Z,21.15
2022-10-26T17:16:25.187Z,19.77
2022-10-26T17:18:53.219Z,16.08
2022-10-26T17:21:30.041Z,20.60
2022-10-26T17:23:57.726Z,15.07
2022-10-26T17:26:24.972Z,16.13
2022-10-26T17:28:56.746Z,16.80
2022-10-26T17:31:26.882Z,14.25
2022-10-26T17:33:56.691Z,16.40
2022-10-26T17:36:25.683Z,16.15
2022-10-26T17:38:55.910Z,16.97
2022-10-26T17:41:28.705Z,17.38
2022-10-26T17:43:55.905Z,20.05
2022-10-26T17:46:25.374Z,17.98
2022-10-26T17:49:00.384Z,19.83
2022-10-26T17:51:32.579Z,21.67
2022-10-26T17:54:01.793Z,19.50
2022-10-26T17:56:32.537Z,21.52
2022-10-26T17:59:04.082Z,19.42
2022-10-26T18:01:34.393Z,19.75
2022-10-26T18:04:04.042Z,22.83
2022-10-26T18:06:33.590Z,18.73
2022-10-26T18:09:00.623Z,22.88
2022-10-26T18:11:32.370Z,25.20
2022-10-26T18:14:02.001Z,21.63
2022-10-26T18:16:31.930Z,19.75
2022-10-26T18:19:05.038Z,21.63
2022-10-26T18:21:39.472Z,22.65
2022-10-26T18:24:09.770Z,21.98
2022-10-26T18:26:37.473Z,22.52
2022-10-26T18:29:07.255Z,26.25
2022-10-26T18:31:35.062Z,26.08
2022-10-26T18:34:06.319Z,26.85
2022-10-26T18:36:33.694Z,21.52
2022-10-26T18:39:03.502Z,23.40
2022-10-26T18:41:33.423Z,25.10
2022-10-26T18:44:03.806Z,26.98
2022-10-26T18:46:33.805Z,24.15
2022-10-26T18:49:01.181Z,25.05
2022-10-26T18:51:34.227Z,26.33
2022-10-26T18:54:04.382Z,26.00
2022-10-26T18:56:33.783Z,24.25
2022-10-26T18:59:01.021Z,27.58
2022-10-26T19:01:39.835Z,27.67
2022-10-26T19:04:11.022Z,28.70
2022-10-26T19:06:47.357Z,34.33
2022-10-26T19:09:21.234Z,55.42
2022-10-26T19:11:50.726Z,52.10
2022-10-26T19:14:17.842Z,30.35
2022-10-26T19:16:47.169Z,27.65
2022-10-26T19:19:19.419Z,29.77
2022-10-26T19:21:52.610Z,30.73
2022-10-26T19:24:22.108Z,28.30
2022-10-26T19:26:52.263Z,30.42
2022-10-26T19:29:20.204Z,34.53
2022-10-26T19:31:50.448Z,32.55
2022-10-26T19:34:20.450Z,32.90
2022-10-26T19:36:50.340Z,32.83
2022-10-26T19:39:20.102Z,33.20
2022-10-26T19:41:47.550Z,32.00
2022-10-26T19:44:17.384Z,31.90
2022-10-26T19:46:49.125Z,36.67
2022-10-26T19:49:19.202Z,32.42
2022-10-26T19:51:48.763Z,34.08
2022-10-26T19:54:20.830Z,34.10
2022-10-26T19:56:48.093Z,38.75
2022-10-26T19:59:17.509Z,43.90
2022-10-26T20:01:49.967Z,41.97
2022-10-26T20:04:17.067Z,42.38
2022-10-26T20:06:44.340Z,38.67
2022-10-26T20:09:20.895Z,38.55
2022-10-26T20:11:50.493Z,38.80
2022-10-26T20:14:20.350Z,37.60
2022-10-26T20:16:57.162Z,44.42
2022-10-26T20:19:24.297Z,44.72
2022-10-26T20:21:54.008Z,39.90
2022-10-26T20:24:21.189Z,40.67
2022-10-26T20:26:48.763Z,42.90
2022-10-26T20:29:21.684Z,43.15
2022-10-26T20:31:56.052Z,40.28
2022-10-26T20:34:26.011Z,44.25
2022-10-26T20:36:55.730Z,45.30
2022-10-26T20:39:25.614Z,41.95
2022-10-26T20:41:55.625Z,42.03
2022-10-26T20:44:27.147Z,45.75
2022-10-26T20:46:59.722Z,56.88
2022-10-26T20:52:21.664Z,44.03
2022-10-26T20:55:13.940Z,42.88
2022-10-26T20:57:54.716Z,42.97
2022-10-26T21:00:24.128Z,44.90
2022-10-26T21:02:53.881Z,43.75
2022-10-26T21:05:22.420Z,45.38
2022-10-26T21:07:54.325Z,45.42
2022-10-26T21:10:28.993Z,47.25
2022-10-26T21:15:25.565Z,44.00
2022-10-26T21:17:54.938Z,43.35
2022-10-26T21:20:24.194Z,43.00
2022-10-26T21:22:56.068Z,44.22
2022-10-26T21:25:25.468Z,42.03
2022-10-26T21:27:58.783Z,43.10
2022-10-26T21:30:27.882Z,44.03
2022-10-26T21:32:58.188Z,43.92
2022-10-26T21:35:32.422Z,44.35
2022-10-26T21:38:02.173Z,43.33
2022-10-26T21:40:33.851Z,43.97
2022-10-26T21:43:03.784Z,46.05
2022-10-26T21:45:30.888Z,41.22
2022-10-26T21:48:00.818Z,44.40
2022-10-26T21:50:30.081Z,43.30
2022-10-26T21:52:59.856Z,44.20
2022-10-26T21:55:29.204Z,44.80
2022-10-26T22:00:32.707Z,41.00
2022-10-26T22:03:00.064Z,39.30
2022-10-26T22:05:29.598Z,39.97
2022-10-26T22:07:56.974Z,38.92
2022-10-26T22:10:24.095Z,39.65
2022-10-26T22:12:51.785Z,37.85
2022-10-26T22:15:25.870Z,36.05
2022-10-26T22:17:53.359Z,44.33
2022-10-26T22:20:22.670Z,40.63
2022-10-26T22:22:52.190Z,38.15
2022-10-26T22:25:22.134Z,42.38
2022-10-26T22:27:51.842Z,39.15
2022-10-26T22:32:51.449Z,35.15
2022-10-26T22:35:29.324Z,35.83
2022-10-26T22:37:57.121Z,40.72
2022-10-26T22:40:26.806Z,40.08
2022-10-26T22:42:54.268Z,35.83
2022-10-26T22:45:24.061Z,34.90
2022-10-26T22:47:55.940Z,36.10
2022-10-26T22:50:23.671Z,35.67
2022-10-26T22:52:53.550Z,36.78
2022-10-26T22:55:23.033Z,36.97
2022-10-26T22:57:58.870Z,41.25
2022-10-26T23:00:26.416Z,36.90
2022-10-26T23:02:53.716Z,35.67
2022-10-26T23:05:20.765Z,35.80
2022-10-26T23:07:50.731Z,34.05
2022-10-26T23:10:20.694Z,33.75
2022-10-26T23:12:50.871Z,37.50
2022-10-26T23:15:20.630Z,32.22
2022-10-26T23:17:50.479Z,39.97
2022-10-26T23:20:19.842Z,32.33
2022-10-26T23:22:49.582Z,33.92
2022-10-26T23:25:19.165Z,34.30
2022-10-26T23:27:51.540Z,33.22
2022-10-26T23:30:23.464Z,32.90
2022-10-26T23:32:57.730Z,34.22
2022-10-26T23:35:29.963Z,32.35
2022-10-26T23:37:58.756Z,36.00
2022-10-26T23:40:33.222Z,34.28
2022-10-26T23:43:03.489Z,33.78
2022-10-26T23:45:30.675Z,32.75
2022-10-26T23:48:02.640Z,31.55
2022-10-26T23:50:29.674Z,33.35
2022-10-26T23:52:59.573Z,33.60
2022-10-26T23:55:28.821Z,34.13
2022-10-26T23:57:56.026Z,32.35
